createdAt,value
2023-02-23T00:02:06.623Z,94826.06
2023-02-23T00:04:37.155Z,94797.94
2023-02-23T00:07:04.470Z,94815.16
2023-02-23T00:09:35.981Z,94817.09
2023-02-23T00:12:08.055Z,94832.13
2023-02-23T00:14:35.419Z,94844.16
2023-02-23T00:17:02.135Z,94826.28
2023-02-23T00:19:28.778Z,94836.78
2023-02-23T00:21:58.834Z,94789.34
2023-02-23T00:24:27.030Z,94840.66
2023-02-23T00:26:53.886Z,94817.69
2023-02-23T00:29:23.217Z,94835.72
2023-02-23T00:31:51.907Z,94827.41
2023-02-23T00:34:23.973Z,94827.00
2023-02-23T00:36:55.426Z,94820.38
2023-02-23T00:39:23.673Z,94836.81
2023-02-23T00:41:52.398Z,94836.03
2023-02-23T00:44:21.076Z,94826.75
2023-02-23T00:46:51.819Z,94821.47
2023-02-23T00:49:20.100Z,94831.56
2023-02-23T00:51:47.056Z,94832.84
2023-02-23T00:54:14.921Z,94829.22
2023-02-23T00:56:42.006Z,94842.72
2023-02-23T00:59:09.394Z,94817.31
2023-02-23T01:01:37.645Z,94793.72
2023-02-23T01:04:05.357Z,94816.88
2023-02-23T01:06:32.330Z,94831.28
2023-02-23T01:08:59.063Z,94838.69
2023-02-23T01:11:31.042Z,94817.38
2023-02-23T01:13:59.553Z,94829.19
2023-02-23T01:16:30.125Z,94829.19
2023-02-23T01:18:59.323Z,94839.13
2023-02-23T01:21:33.039Z,94838.03
2023-02-23T01:24:00.024Z,94836.69
2023-02-23T01:26:34.836Z,94831.28
2023-02-23T01:29:23.550Z,94839.88
2023-02-23T01:31:53.113Z,94831.78
2023-02-23T01:34:21.800Z,94831.78
2023-02-23T01:36:48.703Z,94832.88
2023-02-23T01:39:19.495Z,94840.53
2023-02-23T01:41:46.452Z,94835.88
2023-02-23T01:44:13.051Z,94842.97
2023-02-23T01:46:47.494Z,94837.47
2023-02-23T01:49:20.317Z,94832.09
2023-02-23T01:51:52.442Z,94828.47
2023-02-23T01:54:22.723Z,94825.94
2023-02-23T01:56:58.210Z,94842.03
2023-02-23T01:59:43.884Z,94824.22
2023-02-23T02:02:11.127Z,94811.31
2023-02-23T02:04:46.450Z,94835.59
2023-02-23T02:07:25.029Z,94815.88
2023-02-23T02:10:17.803Z,94833.41
2023-02-23T02:12:56.367Z,94825.81
2023-02-23T02:15:29.853Z,94832.91
2023-02-23T02:18:38.231Z,94819.22
2023-02-23T02:21:42.113Z,94836.94
2023-02-23T02:24:08.662Z,94841.50
2023-02-23T02:27:02.855Z,94839.56
2023-02-23T02:29:56.160Z,94837.13
2023-02-23T02:32:54.234Z,94834.91
2023-02-23T02:35:58.392Z,94844.00
2023-02-23T02:38:51.045Z,94830.56
2023-02-23T02:41:20.841Z,94837.38
2023-02-23T02:44:09.404Z,94830.91
2023-02-23T02:46:40.970Z,94822.63
2023-02-23T02:49:30.656Z,94834.34
2023-02-23T02:52:19.356Z,94835.25
2023-02-23T02:54:53.501Z,94832.56
2023-02-23T02:57:25.238Z,94832.25
2023-02-23T03:00:11.535Z,94830.03
2023-02-23T03:02:58.300Z,94821.00
2023-02-23T03:06:00.982Z,94821.88
2023-02-23T03:09:26.022Z,94826.50
2023-02-23T03:12:46.720Z,94824.91
2023-02-23T03:15:47.870Z,94826.47
2023-02-23T03:19:02.172Z,94824.19
2023-02-23T03:22:00.641Z,94817.00
2023-02-23T03:24:58.964Z,94830.31
2023-02-23T03:28:05.970Z,94845.44
2023-02-23T03:31:20.445Z,94838.63
2023-02-23T03:34:18.349Z,94838.88
2023-02-23T03:37:10.991Z,94846.34
2023-02-23T03:40:01.823Z,94845.97
2023-02-23T03:42:52.781Z,94849.50
2023-02-23T03:45:40.417Z,94854.81
2023-02-23T03:48:29.348Z,94859.31
2023-02-23T03:51:20.134Z,94863.06
2023-02-23T03:54:24.165Z,94862.72
2023-02-23T03:57:12.828Z,94861.78
2023-02-23T04:00:05.745Z,94844.75
2023-02-23T04:02:54.986Z,94839.56
2023-02-23T04:05:42.660Z,94845.31
2023-02-23T04:08:32.624Z,94846.75
2023-02-23T04:11:30.441Z,94848.84
2023-02-23T04:14:01.971Z,94860.63
2023-02-23T04:16:30.550Z,94856.50
2023-02-23T04:18:58.099Z,94860.72
2023-02-23T04:21:24.742Z,94861.81
2023-02-23T04:23:51.647Z,94853.09
2023-02-23T04:26:18.214Z,94842.63
2023-02-23T04:28:44.791Z,94831.84
2023-02-23T04:31:14.202Z,94827.75
2023-02-23T04:33:40.777Z,94847.38
2023-02-23T04:36:07.823Z,94848.53
2023-02-23T04:38:34.444Z,94840.34
2023-02-23T04:41:01.111Z,94861.78
2023-02-23T04:43:27.720Z,94861.97
2023-02-23T04:45:54.349Z,94864.28
2023-02-23T04:48:21.147Z,94854.69
2023-02-23T04:50:47.761Z,94865.47
2023-02-23T04:53:14.374Z,94840.81
2023-02-23T04:55:40.959Z,94847.38
2023-02-23T04:58:13.583Z,94841.03
2023-02-23T05:00:41.104Z,94841.91
2023-02-23T05:03:07.870Z,94824.09
2023-02-23T05:05:34.459Z,94843.91
2023-02-23T05:08:01.064Z,94842.19
2023-02-23T05:10:27.728Z,94865.16
2023-02-23T05:12:54.943Z,94861.13
2023-02-23T05:15:21.748Z,94868.22
2023-02-23T05:17:48.524Z,94830.25
2023-02-23T05:20:15.394Z,94858.00
2023-02-23T05:22:42.001Z,94860.81
2023-02-23T05:25:10.414Z,94861.56
2023-02-23T05:27:37.541Z,94876.72
2023-02-23T05:30:07.463Z,94874.72
2023-02-23T05:32:34.878Z,94883.72
2023-02-23T05:35:02.657Z,94885.34
2023-02-23T05:37:29.238Z,94876.00
2023-02-23T05:39:55.807Z,94882.25
2023-02-23T05:42:22.410Z,94888.75
2023-02-23T05:44:49.038Z,94891.72
2023-02-23T05:47:15.654Z,94895.56
2023-02-23T05:49:42.763Z,94894.44
2023-02-23T05:52:09.356Z,94910.53
2023-02-23T05:54:35.952Z,94880.00
2023-02-23T05:57:02.527Z,94899.91
2023-02-23T05:59:29.121Z,94917.78
2023-02-23T06:01:55.823Z,94914.69
2023-02-23T06:04:23.375Z,94920.19
2023-02-23T06:06:50.120Z,94892.72
2023-02-23T06:09:16.742Z,94924.41
2023-02-23T06:11:44.601Z,94912.84
2023-02-23T06:14:11.359Z,94895.81
2023-02-23T06:16:38.227Z,94909.38
2023-02-23T06:19:05.033Z,94928.28
2023-02-23T06:21:31.571Z,94925.53
2023-02-23T06:24:00.668Z,94930.81
2023-02-23T06:26:27.451Z,94910.63
2023-02-23T06:28:54.379Z,94925.22
2023-02-23T06:31:21.827Z,94939.44
2023-02-23T06:33:48.811Z,94945.53
2023-02-23T06:36:15.437Z,94916.94
2023-02-23T06:38:42.188Z,94950.84
2023-02-23T06:41:10.715Z,94940.84
2023-02-23T06:43:37.458Z,94949.75
2023-02-23T06:46:04.623Z,94947.81
2023-02-23T06:48:31.780Z,94952.47
2023-02-23T06:50:59.988Z,94939.59
2023-02-23T06:53:26.681Z,94939.56
2023-02-23T06:55:53.368Z,94923.13
2023-02-23T06:58:19.999Z,94946.41
2023-02-23T07:00:46.700Z,94941.78
2023-02-23T07:03:13.308Z,94935.56
2023-02-23T07:05:40.965Z,94949.19
2023-02-23T07:08:07.733Z,94950.78
2023-02-23T07:10:35.081Z,94907.00
2023-02-23T07:13:01.854Z,94943.38
2023-02-23T07:15:28.565Z,94949.53
2023-02-23T07:17:55.482Z,94956.09
2023-02-23T07:20:22.094Z,94942.53
2023-02-23T07:22:48.691Z,94932.53
2023-02-23T07:25:15.330Z,94938.31
2023-02-23T07:27:42.403Z,94952.03
2023-02-23T07:30:10.045Z,94933.75
2023-02-23T07:32:36.788Z,94934.31
2023-02-23T07:35:04.707Z,94937.47
2023-02-23T07:37:31.339Z,94939.59
2023-02-23T07:39:59.529Z,94942.03
2023-02-23T07:42:27.666Z,94941.78
2023-02-23T07:44:54.264Z,94930.78
2023-02-23T07:47:21.007Z,94928.94
2023-02-23T07:49:47.756Z,94936.94
2023-02-23T07:52:18.478Z,94945.09
2023-02-23T07:54:45.318Z,94919.38
2023-02-23T07:57:12.354Z,94923.47
2023-02-23T07:59:39.346Z,94926.31
2023-02-23T08:02:05.987Z,94924.53
2023-02-23T08:04:32.652Z,94896.16
2023-02-23T08:06:59.669Z,94920.63
2023-02-23T08:09:26.240Z,94928.63
2023-02-23T08:11:52.779Z,94900.53
2023-02-23T08:14:23.582Z,94928.03
2023-02-23T08:16:51.655Z,94913.06
2023-02-23T08:19:18.437Z,94900.31
2023-02-23T08:21:45.519Z,94898.34
2023-02-23T08:24:12.141Z,94914.97
2023-02-23T08:26:38.771Z,94927.22
2023-02-23T08:29:05.462Z,94926.59
2023-02-23T08:31:33.859Z,94910.59
2023-02-23T08:34:01.464Z,94931.09
2023-02-23T08:36:28.281Z,94912.94
2023-02-23T08:38:54.995Z,94911.44
2023-02-23T08:41:22.075Z,94922.91
2023-02-23T08:43:48.991Z,94924.09
2023-02-23T08:46:18.603Z,94923.81
2023-02-23T08:48:45.317Z,94910.97
2023-02-23T08:51:11.900Z,94914.78
2023-02-23T08:53:38.509Z,94919.50
2023-02-23T08:56:07.315Z,94908.25
2023-02-23T08:58:35.953Z,94918.88
2023-02-23T09:01:04.030Z,94909.38
2023-02-23T09:03:33.586Z,94899.69
2023-02-23T09:06:10.148Z,94922.78
2023-02-23T09:08:36.986Z,94902.44
2023-02-23T09:11:03.520Z,94912.25
2023-02-23T09:13:30.105Z,94899.34
2023-02-23T09:15:56.761Z,94903.78
2023-02-23T09:18:24.147Z,94916.50
2023-02-23T09:20:51.906Z,94906.56
2023-02-23T09:23:19.900Z,94871.16
2023-02-23T09:25:46.824Z,94912.00
2023-02-23T09:28:16.561Z,94899.28
2023-02-23T09:30:44.722Z,94852.63
2023-02-23T09:33:12.192Z,94913.97
2023-02-23T09:35:39.421Z,94907.28
2023-02-23T09:38:07.579Z,94905.53
2023-02-23T09:40:46.981Z,94900.06
2023-02-23T09:43:22.334Z,94909.72
2023-02-23T09:46:04.269Z,94879.13
2023-02-23T09:48:31.476Z,94876.31
2023-02-23T09:50:59.909Z,94862.91
2023-02-23T09:53:42.867Z,94851.84
2023-02-23T09:56:35.772Z,94905.19
2023-02-23T09:59:05.793Z,94899.88
2023-02-23T10:02:10.685Z,94905.72
2023-02-23T10:04:40.832Z,94903.41
2023-02-23T10:07:18.600Z,94891.78
2023-02-23T10:09:54.479Z,94897.78
2023-02-23T10:12:29.946Z,94895.72
2023-02-23T10:15:12.761Z,94888.97
2023-02-23T10:17:50.802Z,94888.13
2023-02-23T10:20:28.576Z,94889.22
2023-02-23T10:23:01.330Z,94868.91
2023-02-23T10:25:32.170Z,94777.06
2023-02-23T10:28:01.038Z,94859.97
2023-02-23T10:30:30.907Z,94816.97
2023-02-23T10:33:25.561Z,94864.81
2023-02-23T10:36:12.744Z,94878.66
2023-02-23T10:38:40.725Z,94864.94
2023-02-23T10:41:09.001Z,94795.72
2023-02-23T10:43:35.767Z,94853.91
2023-02-23T10:46:02.434Z,94844.88
2023-02-23T10:48:43.160Z,94841.44
2023-02-23T10:51:26.322Z,94835.97
2023-02-23T10:53:53.019Z,94842.91
2023-02-23T10:56:21.217Z,94826.91
2023-02-23T10:58:58.455Z,94832.88
2023-02-23T11:02:01.928Z,94821.41
2023-02-23T11:04:31.463Z,94792.44
2023-02-23T11:07:16.437Z,94819.63
2023-02-23T11:09:47.607Z,94767.16
2023-02-23T11:12:21.751Z,94821.91
2023-02-23T11:14:53.405Z,94811.16
2023-02-23T11:17:37.663Z,94802.72
2023-02-23T11:20:28.690Z,94802.44
2023-02-23T11:22:58.991Z,94802.97
2023-02-23T11:25:32.715Z,94802.16
2023-02-23T11:27:59.914Z,94789.16
2023-02-23T11:30:38.092Z,94803.94
2023-02-23T11:33:12.130Z,94786.97
2023-02-23T11:35:39.210Z,94776.44
2023-02-23T11:38:26.676Z,94791.63
2023-02-23T11:41:05.627Z,94744.94
2023-02-23T11:43:33.196Z,94764.66
2023-02-23T11:46:02.090Z,94788.06
2023-02-23T11:48:33.595Z,94779.47
2023-02-23T11:51:01.328Z,94759.03
2023-02-23T11:53:44.931Z,94779.34
2023-02-23T11:56:12.623Z,94752.09
2023-02-23T11:58:51.229Z,94775.00
2023-02-23T12:01:44.005Z,94761.91
2023-02-23T12:04:23.909Z,94769.69
2023-02-23T12:06:51.079Z,94770.59
2023-02-23T12:09:23.833Z,94768.03
2023-02-23T12:12:01.856Z,94760.53
2023-02-23T12:14:41.425Z,94720.78
2023-02-23T12:17:23.975Z,94754.34
2023-02-23T12:20:01.603Z,94736.09
2023-02-23T12:22:53.812Z,94752.25
2023-02-23T12:25:46.165Z,94693.31
2023-02-23T12:28:32.233Z,94775.06
2023-02-23T12:31:06.094Z,94746.78
2023-02-23T12:33:39.354Z,94748.22
2023-02-23T12:36:39.683Z,94735.72
2023-02-23T12:39:30.723Z,94752.78
2023-02-23T12:42:22.679Z,94754.00
2023-02-23T12:44:58.813Z,94755.81
2023-02-23T12:47:49.308Z,94683.53
2023-02-23T12:50:24.883Z,94743.13
2023-02-23T12:52:57.697Z,94727.59
2023-02-23T12:56:06.552Z,94734.53
2023-02-23T12:58:51.694Z,94736.78
2023-02-23T13:01:33.977Z,94737.94
2023-02-23T13:04:26.940Z,94737.44
2023-02-23T13:07:05.521Z,94748.03
2023-02-23T13:09:48.065Z,94724.84
2023-02-23T13:12:42.467Z,94740.03
2023-02-23T13:15:46.119Z,94746.41
2023-02-23T13:18:34.614Z,94739.66
2023-02-23T13:21:27.132Z,94725.91
2023-02-23T13:23:56.644Z,94733.41
2023-02-23T13:26:34.605Z,94734.66
2023-02-23T13:29:01.196Z,94736.66
2023-02-23T13:31:40.168Z,94677.25
2023-02-23T13:34:24.284Z,94727.91
2023-02-23T13:36:51.907Z,94729.44
2023-02-23T13:39:37.109Z,94722.44
2023-02-23T13:42:28.600Z,94724.94
2023-02-23T13:45:14.969Z,94726.41
2023-02-23T13:47:53.674Z,94728.16
2023-02-23T13:50:30.309Z,94716.19
2023-02-23T13:53:02.063Z,94737.19
2023-02-23T13:55:40.038Z,94734.66
2023-02-23T13:58:17.078Z,94697.19
2023-02-23T14:00:50.010Z,94726.19
2023-02-23T14:03:27.330Z,94740.44
2023-02-23T14:05:59.842Z,94672.03
2023-02-23T14:08:38.837Z,94727.69
2023-02-23T14:11:06.495Z,94731.91
2023-02-23T14:13:39.222Z,94716.69
2023-02-23T14:16:24.252Z,94730.94
2023-02-23T14:18:50.817Z,94735.19
2023-02-23T14:21:26.614Z,94730.66
2023-02-23T14:24:14.392Z,94737.75
2023-02-23T14:27:08.284Z,94716.47
2023-02-23T14:29:44.123Z,94735.16
2023-02-23T14:32:10.984Z,94753.78
2023-02-23T14:34:59.734Z,94752.28
2023-02-23T14:37:55.613Z,94749.69
2023-02-23T14:40:32.241Z,94748.38
2023-02-23T14:43:02.254Z,94739.75
2023-02-23T14:45:37.071Z,94690.13
2023-02-23T14:48:17.165Z,94758.38
2023-02-23T14:50:44.569Z,94734.53
2023-02-23T14:53:24.335Z,94728.50
2023-02-23T14:55:50.951Z,94738.22
2023-02-23T14:58:35.291Z,94724.25
2023-02-23T15:01:01.986Z,94744.03
2023-02-23T15:03:28.747Z,94684.84
2023-02-23T15:05:58.886Z,94722.50
2023-02-23T15:08:28.118Z,94751.28
2023-02-23T15:11:05.597Z,94722.47
2023-02-23T15:13:40.449Z,94753.34
2023-02-23T15:16:12.771Z,94744.78
2023-02-23T15:18:42.313Z,94743.41
2023-02-23T15:21:12.884Z,94740.75
2023-02-23T15:23:39.985Z,94758.56
2023-02-23T15:26:26.379Z,94755.28
2023-02-23T15:28:53.653Z,94751.91
2023-02-23T15:31:20.579Z,94762.28
2023-02-23T15:33:50.850Z,94772.91
2023-02-23T15:36:31.433Z,94779.13
2023-02-23T15:39:01.087Z,94783.38
2023-02-23T15:41:38.433Z,94768.28
2023-02-23T15:44:14.549Z,94754.66
2023-02-23T15:46:44.198Z,94772.88
2023-02-23T15:49:14.367Z,94788.06
2023-02-23T15:51:48.604Z,94800.88
2023-02-23T15:54:29.754Z,94786.88
2023-02-23T15:57:02.114Z,94770.31
2023-02-23T15:59:34.732Z,94793.03
2023-02-23T16:02:03.080Z,94768.91
2023-02-23T16:04:33.818Z,94778.16
2023-02-23T16:07:14.811Z,94797.34
2023-02-23T16:09:50.302Z,94801.13
2023-02-23T16:12:23.768Z,94782.84
2023-02-23T16:15:27.116Z,94824.00
2023-02-23T16:17:57.854Z,94822.88
2023-02-23T16:20:35.587Z,94825.75
2023-02-23T16:23:03.278Z,94821.63
2023-02-23T16:25:31.190Z,94838.44
2023-02-23T16:28:03.273Z,94813.97
2023-02-23T16:30:32.948Z,94835.53
2023-02-23T16:33:07.769Z,94837.56
2023-02-23T16:35:46.527Z,94841.69
2023-02-23T16:38:35.430Z,94835.59
2023-02-23T16:41:11.249Z,94858.75
2023-02-23T16:43:37.871Z,94865.78
2023-02-23T16:46:04.599Z,94863.97
2023-02-23T16:48:31.246Z,94865.34
2023-02-23T16:50:57.878Z,94830.69
2023-02-23T16:53:25.346Z,94858.78
2023-02-23T16:56:01.019Z,94873.16
2023-02-23T16:58:30.528Z,94864.16
2023-02-23T17:00:57.213Z,94869.72
2023-02-23T17:03:30.422Z,94854.97
2023-02-23T17:05:57.280Z,94860.53
2023-02-23T17:08:24.699Z,94880.53
2023-02-23T17:10:57.376Z,94863.28
2023-02-23T17:13:26.104Z,94876.81
2023-02-23T17:15:56.311Z,94871.06
2023-02-23T17:20:59.464Z,94885.78
2023-02-23T17:23:28.544Z,94897.41
2023-02-23T17:25:58.783Z,94878.81
2023-02-23T17:28:25.935Z,94887.63
2023-02-23T17:30:52.605Z,94882.47
2023-02-23T17:33:19.633Z,94861.19
2023-02-23T17:35:46.913Z,94877.53
2023-02-23T17:38:14.968Z,94900.03
2023-02-23T17:40:41.648Z,94890.53
2023-02-23T17:43:08.653Z,94895.25
2023-02-23T17:45:35.446Z,94880.25
2023-02-23T17:48:02.020Z,94846.28
2023-02-23T17:50:29.110Z,94895.84
2023-02-23T17:52:56.468Z,94895.25
2023-02-23T17:55:24.126Z,94874.81
2023-02-23T17:57:50.808Z,94890.56
2023-02-23T18:00:19.050Z,94896.44
2023-02-23T18:02:46.726Z,94897.03
2023-02-23T18:05:14.621Z,94862.44
2023-02-23T18:07:42.019Z,94889.78
2023-02-23T18:10:09.505Z,94907.00
2023-02-23T18:12:36.100Z,94897.00
2023-02-23T18:15:02.897Z,94901.84
2023-02-23T18:17:32.557Z,94874.91
2023-02-23T18:20:00.420Z,94882.50
2023-02-23T18:22:27.131Z,94899.25
2023-02-23T18:24:53.738Z,94916.44
2023-02-23T18:27:20.390Z,94877.53
2023-02-23T18:29:46.998Z,94905.50
2023-02-23T18:32:13.754Z,94909.13
2023-02-23T18:34:40.591Z,94913.19
2023-02-23T18:37:10.201Z,94908.50
2023-02-23T18:39:37.209Z,94926.75
2023-02-23T18:42:04.550Z,94896.47
2023-02-23T18:44:33.442Z,94936.66
2023-02-23T18:47:01.394Z,94937.81
2023-02-23T18:49:28.055Z,94933.59
2023-02-23T18:51:54.795Z,94931.34
2023-02-23T18:54:22.458Z,94937.19
2023-02-23T18:56:49.328Z,94948.38
2023-02-23T18:59:16.198Z,94943.50
2023-02-23T19:01:45.454Z,94947.13
2023-02-23T19:04:12.829Z,94942.41
2023-02-23T19:06:42.924Z,94954.03
2023-02-23T19:09:12.614Z,94950.81
2023-02-23T19:11:41.428Z,94943.94
2023-02-23T19:14:12.122Z,94941.22
2023-02-23T19:16:41.200Z,94961.72
2023-02-23T19:19:08.417Z,94966.50
2023-02-23T19:21:36.022Z,94965.13
2023-02-23T19:24:03.477Z,94957.25
2023-02-23T19:26:31.720Z,94945.41
2023-02-23T19:28:58.791Z,94969.28
2023-02-23T19:31:26.550Z,94968.16
2023-02-23T19:33:56.001Z,94964.41
2023-02-23T19:36:29.607Z,94990.97
2023-02-23T19:39:06.262Z,94988.06
2023-02-23T19:41:33.970Z,94966.72
2023-02-23T19:44:01.113Z,94983.00
2023-02-23T19:46:28.066Z,94982.38
2023-02-23T19:48:54.864Z,94963.38
2023-02-23T19:51:22.450Z,94992.88
2023-02-23T19:53:49.607Z,94997.75
2023-02-23T19:56:17.179Z,95002.72
2023-02-23T19:58:46.684Z,95004.91
2023-02-23T20:01:16.926Z,94990.41
2023-02-23T20:03:45.900Z,94989.75
2023-02-23T20:06:14.583Z,94984.69
2023-02-23T20:08:42.475Z,94997.78
2023-02-23T20:11:09.466Z,94987.06
2023-02-23T20:13:38.589Z,95011.66
2023-02-23T20:16:09.052Z,95011.56
2023-02-23T20:18:38.572Z,95000.72
2023-02-23T20:21:24.427Z,95002.75
2023-02-23T20:23:51.511Z,94989.78
2023-02-23T20:26:21.913Z,94994.13
2023-02-23T20:28:50.141Z,94993.06
2023-02-23T20:31:23.276Z,94985.69
2023-02-23T20:33:50.405Z,94986.66
2023-02-23T20:36:18.735Z,94995.75
2023-02-23T20:38:45.478Z,94970.09
2023-02-23T20:41:12.209Z,94984.25
2023-02-23T20:43:39.167Z,94992.06
2023-02-23T20:46:06.662Z,94980.69
2023-02-23T20:48:34.872Z,95005.19
2023-02-23T20:51:02.901Z,95009.41
2023-02-23T20:53:30.259Z,94998.00
2023-02-23T20:55:56.989Z,94980.91
2023-02-23T20:58:26.282Z,95002.16
2023-02-23T21:00:57.237Z,95012.44
2023-02-23T21:03:25.374Z,95011.03
2023-02-23T21:05:53.017Z,95008.44
2023-02-23T21:08:20.715Z,94991.31
2023-02-23T21:10:48.798Z,95007.88
2023-02-23T21:13:16.591Z,95009.09
2023-02-23T21:15:44.428Z,94974.09
2023-02-23T21:18:11.848Z,94990.56
2023-02-23T21:20:39.766Z,94997.84
2023-02-23T21:23:06.826Z,95002.16
2023-02-23T21:25:33.596Z,94999.66
2023-02-23T21:28:01.988Z,95001.19
2023-02-23T21:30:29.045Z,94977.66
2023-02-23T21:32:57.464Z,95006.81
2023-02-23T21:35:24.542Z,94997.84
2023-02-23T21:37:52.162Z,95010.94
2023-02-23T21:40:23.379Z,95004.00
2023-02-23T21:42:50.949Z,95004.84
2023-02-23T21:45:18.249Z,95015.59
2023-02-23T21:47:46.276Z,94982.00
2023-02-23T21:50:16.891Z,94994.91
2023-02-23T21:52:45.354Z,95002.69
2023-02-23T21:55:21.177Z,94977.66
2023-02-23T21:57:48.488Z,94971.28
2023-02-23T22:00:16.440Z,94989.69
2023-02-23T22:02:46.738Z,94983.41
2023-02-23T22:05:14.911Z,94991.88
2023-02-23T22:07:41.682Z,95012.78
2023-02-23T22:10:08.887Z,95015.16
2023-02-23T22:12:35.496Z,95019.50
2023-02-23T22:15:07.186Z,94999.56
2023-02-23T22:17:33.913Z,95008.13
2023-02-23T22:20:00.618Z,95009.63
2023-02-23T22:22:27.574Z,95009.84
2023-02-23T22:24:54.171Z,95015.59
2023-02-23T22:27:22.184Z,95002.59
2023-02-23T22:29:48.895Z,95011.47
2023-02-23T22:32:17.640Z,94995.78
2023-02-23T22:34:44.427Z,94993.72
2023-02-23T22:37:11.080Z,95003.47
2023-02-23T22:39:41.714Z,95006.38
2023-02-23T22:42:12.583Z,95013.75
2023-02-23T22:44:39.329Z,95002.25
2023-02-23T22:47:06.840Z,95008.22
2023-02-23T22:49:34.723Z,94975.63
2023-02-23T22:52:01.412Z,94993.06
2023-02-23T22:54:28.092Z,95009.09
2023-02-23T22:56:54.949Z,95014.28
2023-02-23T22:59:21.521Z,95005.75
2023-02-23T23:01:50.185Z,95008.44
2023-02-23T23:04:17.276Z,94986.00
2023-02-23T23:06:44.249Z,94992.84
2023-02-23T23:09:12.173Z,95003.69
2023-02-23T23:11:42.477Z,94992.19
2023-02-23T23:14:10.596Z,94999.53
2023-02-23T23:16:47.614Z,95008.75
2023-02-23T23:19:17.565Z,94982.75
2023-02-23T23:21:46.072Z,95000.41
2023-02-23T23:24:13.519Z,95006.47
2023-02-23T23:26:41.327Z,95004.13
2023-02-23T23:29:11.380Z,94998.16
2023-02-23T23:31:39.738Z,95002.56
2023-02-23T23:34:10.220Z,95005.28
2023-02-23T23:36:45.951Z,95000.22
2023-02-23T23:39:15.305Z,94964.22
2023-02-23T23:41:48.726Z,94998.03
2023-02-23T23:44:21.586Z,94975.63
2023-02-23T23:46:50.864Z,94991.22
2023-02-23T23:49:19.917Z,94991.84
2023-02-23T23:51:50.279Z,94983.63
2023-02-23T23:54:31.327Z,94993.16
2023-02-23T23:57:01.455Z,94976.47
2023-02-23T23:59:28.498Z,94989.91
